Time;durP1;ratioP1;P1;durP2;ratioP2;P2;SDS_P1;SDS_P2;PMS_P1;PMS_P2;Temp;Humidity;BMP_temperature;BMP_pressure;BME280_temperature;BME280_humidity;BME280_pressure;Samples;Min_cycle;Max_cycle;Signal;HPM_P1;HPM_P2
2022/01/12 00:02:05;;;;;;;;;;;;;;;2.33;100.00;103242.44;5016788;28;19990;-76
2022/01/12 00:04:31;;;;;;;;;;;;;;;2.44;100.00;103235.31;5000443;28;20067;-75
2022/01/12 00:06:56;;;;;;;;;;;;;;;2.47;100.00;103228.28;5001286;28;19924;-76
2022/01/12 00:09:22;;;;;;;;;;;;;;;2.52;100.00;103215.19;5000401;28;20012;-76
2022/01/12 00:11:48;;;;;;;;;;;;;;;2.41;100.00;103206.69;5016579;28;19912;-76
2022/01/12 00:14:13;;;;;;;;;;;;;;;2.55;100.00;103219.53;4999112;28;19952;-77
2022/01/12 00:16:40;;;;;;;;;;;;;;;2.32;100.00;103206.78;5016886;28;19917;-77
2022/01/12 00:19:06;;;;;;;;;;;;;;;2.36;100.00;103227.59;5016789;28;19917;-75
2022/01/12 00:21:31;;;;;;;;;;;;;;;2.45;100.00;103221.38;5034958;28;19919;-75
2022/01/12 00:23:57;;;;;;;;;;;;;;;2.43;100.00;103223.16;5018206;28;20026;-76
2022/01/12 00:34:26;;;;;;;;;;;;;;;2.36;100.00;103214.53;5036376;28;19909;-75
2022/01/12 00:36:51;;;;;;;;;;;;;;;2.53;100.00;103229.97;5020170;28;19940;-76
2022/01/12 00:39:17;;;;;;;;;;;;;;;2.50;100.00;103235.25;5024779;28;19909;-75
2022/01/12 00:41:42;;;;;;;;;;;;;;;2.35;100.00;103240.66;5040784;28;20059;-76
2022/01/12 00:44:10;;;;;;;;;;;;;;;2.32;100.00;103236.34;5005133;28;19913;-74
2022/01/12 00:46:36;;;;;;;;;;;;;;;2.32;100.00;103238.97;5005492;28;20270;-75
2022/01/12 00:49:02;;;;;;;;;;;;;;;2.32;100.00;103238.97;5022157;28;19913;-75
2022/01/12 00:51:31;;;;;;;;;;;;;;;2.37;100.00;103234.53;5037382;28;20003;-76
2022/01/12 00:53:58;;;;;;;;;;;;;;;2.48;100.00;103229.19;5018221;28;19941;-75
2022/01/12 00:56:23;;;;;;;;;;;;;;;2.56;100.00;103229.06;5017839;28;19936;-76
2022/01/12 00:58:49;;;;;;;;;;;;;;;2.49;100.00;103215.25;5036586;28;20327;-75
2022/01/12 01:01:16;;;;;;;;;;;;;;;2.62;100.00;103208.97;5036173;28;20282;-75
2022/01/12 01:03:41;;;;;;;;;;;;;;;2.74;100.00;103209.66;5017849;28;19913;-76
2022/01/12 01:06:10;;;;;;;;;;;;;;;2.40;100.00;103199.72;5036005;28;19920;-76
2022/01/12 01:08:36;;;;;;;;;;;;;;;2.40;100.00;103203.19;5008383;28;20001;-76
2022/01/12 01:11:02;;;;;;;;;;;;;;;2.42;100.00;103204.03;5000013;28;19969;-77
2022/01/12 01:13:34;;;;;;;;;;;;;;;2.28;100.00;103208.59;4999341;28;20000;-76
2022/01/12 01:16:08;;;;;;;;;;;;;;;2.32;100.00;103206.78;5018407;28;20008;-76
2022/01/12 01:26:48;;;;;;;;;;;;;;;2.65;100.00;103224.56;5036179;28;19920;-76
2022/01/12 01:29:14;;;;;;;;;;;;;;;2.57;100.00;103242.09;5021760;28;19909;-75
2022/01/12 01:31:41;;;;;;;;;;;;;;;2.69;100.00;103254.94;5004502;28;19924;-75
2022/01/12 01:34:10;;;;;;;;;;;;;;;2.51;100.00;103268.25;5020834;28;20003;-76
2022/01/12 01:36:37;;;;;;;;;;;;;;;2.68;100.00;103283.66;5038180;28;19913;-76
2022/01/12 01:39:04;;;;;;;;;;;;;;;2.62;100.00;103294.19;5041622;28;19909;-76
2022/01/12 01:41:29;;;;;;;;;;;;;;;2.76;100.00;103313.13;5023849;28;19935;-76
2022/01/12 01:44:34;;;;;;;74.32;26.10;;;;;;;2.87;100.00;103294.72;5043734;28;19913;-76
2022/01/12 01:55:07;;;;;;;;;;;;;;;2.83;100.00;103335.63;5022101;28;20000;-76
2022/01/12 01:57:33;;;;;;;;;;;;;;;3.14;100.00;103340.44;5043533;28;19959;-76
2022/01/12 01:59:58;;;;;;;;;;;;;;;3.23;100.00;103349.88;5008930;28;19944;-75
2022/01/12 02:02:24;;;;;;;;;;;;;;;3.31;100.00;103348.00;5026452;28;19940;-76
2022/01/12 02:04:49;;;;;;;;;;;;;;;3.14;100.00;103340.44;5030008;28;19913;-75
2022/01/12 02:07:15;;;;;;;;;;;;;;;3.18;100.00;103346.44;5031665;28;19913;-75
2022/01/12 02:09:40;;;;;;;;;;;;;;;3.45;100.00;103346.06;5009716;28;19913;-75
2022/01/12 02:12:06;;;;;;;;;;;;;;;3.23;100.00;103342.06;5028404;28;19913;-76
2022/01/12 02:14:31;;;;;;;;;;;;;;;3.13;100.00;103336.97;5008571;28;19976;-75
2022/01/12 02:17:03;;;;;;;;;;;;;;;3.24;100.00;103346.38;5023826;28;19928;-75
2022/01/12 02:36:20;;;;;;;;;;;;;;;3.30;100.00;103354.13;4984671;28;20396;-75
2022/01/12 02:41:30;;;;;;;;;;;;;;;3.30;100.00;103352.38;4969695;28;20008;-75
2022/01/12 02:54:44;;;;;;;;;;;;;;;3.62;100.00;103345.75;4982770;28;19925;-76
2022/01/12 02:57:09;;;;;;;;;;;;;;;3.44;100.00;103340.84;4985418;28;20368;-75
2022/01/12 02:59:36;;;;;;;;;;;;;;;3.40;100.00;103347.84;5016141;28;20062;-75
2022/01/12 03:07:39;;;;;;;;;;;;;;;3.09;100.00;103350.09;4944215;29;19922;-76
2022/01/12 03:10:05;;;;;;;;;;;;;;;3.33;100.00;103356.69;4942152;29;19922;-75
2022/01/12 03:12:31;;;;;;;;;;;;;;;3.41;100.00;103367.03;4942058;29;19946;-76
2022/01/12 03:14:56;;;;;;;;;;;;;;;3.43;100.00;103373.94;4941743;29;19923;-75
2022/01/12 03:17:22;;;;;;;;;;;;;;;3.53;100.00;103378.13;4945301;29;19919;-75
2022/01/12 03:20:09;;;;;;;;;;;;;;;3.55;100.00;103375.50;4949141;29;20033;-75
2022/01/12 03:22:35;;;;;;;;;;;;;;;3.52;100.00;103380.75;4948687;29;19970;-76
2022/01/12 03:25:02;;;;;;;;;;;;;;;3.62;100.00;103384.94;4948696;29;19969;-75
2022/01/12 03:27:29;;;;;;;;;;;;;;;3.74;100.00;103382.13;4934556;29;19915;-74
2022/01/12 03:29:56;;;;;;;;;;;;;;;3.43;100.00;103378.28;4946945;29;19945;-75
2022/01/12 03:32:32;;;;;;;;;;;;;;;3.52;100.00;103386.88;4947955;29;19926;-75
2022/01/12 03:35:07;;;;;;;;;;;;;;;3.57;100.00;103392.00;4949301;29;19919;-77
2022/01/12 03:37:54;;;;;;;;;;;;;;;3.70;100.00;103392.66;4931409;29;19910;-76
2022/01/12 03:40:19;;;;;;;;;;;;;;;3.76;100.00;103392.56;4944524;29;19926;-75
2022/01/12 03:42:45;;;;;;;;;;;;;;;3.72;100.00;103391.78;4926040;29;19914;-77
2022/01/12 03:45:11;;;;;;;;;;;;;;;3.52;100.00;103396.41;5011548;28;20290;-76
2022/01/12 03:47:36;;;;;;;;;;;;;;;3.38;100.00;103401.84;5024138;28;19959;-75
2022/01/12 03:50:10;;;;;;;;;;;;;;;3.56;100.00;103398.09;5027524;28;19921;-75
2022/01/12 03:52:35;;;;;;;;;;;;;;;3.58;100.00;103393.72;5022823;28;19920;-75
2022/01/12 03:55:02;;;;;;;;;;;;;;;3.52;100.00;103380.75;5039517;28;19970;-76
2022/01/12 03:57:28;;;;;;;;;;;;;;;3.35;100.00;103376.66;5023622;28;19920;-77
2022/01/12 03:59:55;;;;;;;;;;;;;;;3.26;100.00;103368.97;5008673;28;19913;-77
2022/01/12 04:02:21;;;;;;;;;;;;;;;3.36;100.00;103374.91;5043485;28;19917;-76
2022/01/12 04:10:24;;;;;;;;;;;;;;;3.32;100.00;103368.88;4941820;29;19972;-76
2022/01/12 04:12:50;;;;;;;;;;;;;;;3.41;100.00;103372.25;4941019;29;19914;-76
2022/01/12 04:15:18;;;;;;;;;;;;;;;3.34;100.00;103379.31;4939218;29;19919;-76
2022/01/12 04:17:44;;;;;;;;;;;;;;;3.37;100.00;103388.84;4923637;29;20405;-78
2022/01/12 04:20:09;;;;;;;;;;;;;;;2.88;100.00;103395.59;4939633;29;19914;-78
2022/01/12 04:25:19;;;;;;;;;;;;;;;2.90;100.00;103407.75;4940178;29;20355;-75
2022/01/12 04:27:45;;;;;;;;;;;;;;;3.13;100.00;103412.69;4929312;29;19915;-76
2022/01/12 04:30:13;;;;;;;;;;;;;;;3.25;100.00;103406.41;4925151;29;19914;-75
2022/01/12 04:32:42;;;;;;;;;;;;;;;2.84;100.00;103396.50;4920416;29;19954;-75
2022/01/12 04:35:07;;;;;;;;;;;;;;;2.78;100.00;103387.03;4920180;29;19910;-75
2022/01/12 04:37:34;;;;;;;;;;;;;;;2.94;100.00;103382.47;4920270;29;19970;-76
2022/01/12 04:40:03;;;;;;;;;;;;;;;2.75;100.00;103379.25;4936016;29;19922;-76
2022/01/12 04:42:36;;;;;;;;;;;;;;;2.98;100.00;103394.63;4922146;29;19911;-76
2022/01/12 04:45:18;;;;;;;;;;;;;;;2.88;100.00;103393.88;4993931;28;20005;-75
2022/01/12 04:50:23;;;;;;;;;;;;;;;2.60;100.00;103393.34;5469516;22;19932;-75
2022/01/12 04:52:49;;;;;;;;;;;;;;;2.44;100.00;103399.63;5035808;28;20031;-75
2022/01/12 04:55:14;;;;;;;;;;;;;;;2.33;100.00;103401.47;5036728;28;20320;-75
2022/01/12 04:57:40;;;;;;;;;;;;;;;2.38;100.00;103404.91;5036968;28;20231;-74
2022/01/12 05:00:14;;;;;;;;;;;;;;;2.65;100.00;103408.94;5019846;28;19920;-75
2022/01/12 05:13:42;;;;;;;;;;;;;;;2.77;100.00;103437.50;4998153;28;19913;-74
2022/01/12 05:16:11;;;;;;;;;;;;;;;2.64;100.00;103436.78;5000238;28;19933;-75
2022/01/12 05:18:37;;;;;;;;;;;;;;;2.71;100.00;103430.59;4983118;28;20000;-74
2022/01/12 05:21:04;;;;;;;;;;;;;;;2.66;100.00;103440.25;4998693;28;19936;-75
2022/01/12 05:23:30;;;;;;;;;;;;;;;2.41;100.00;103434.44;4998648;28;20233;-74
2022/01/12 05:25:56;;;;;;;;;;;;;;;2.48;100.00;103436.09;4998053;28;20379;-74
2022/01/12 05:28:41;;;;;;;;;;;;;;;2.40;100.00;103440.50;4984330;28;20026;-75
2022/01/12 05:31:13;;;;;;;;;;;;;;;2.08;100.00;103428.66;4997431;28;20343;-74
2022/01/12 05:33:40;;;;;;;;;;;;;;;1.94;100.00;103435.72;4981219;28;19909;-75
2022/01/12 05:36:07;;;;;;;;;;;;;;;1.81;100.00;103436.69;4999063;28;19995;-76
2022/01/12 05:38:34;;;;;;;;;;;;;;;1.88;100.00;103446.19;4983185;28;19910;-75
2022/01/12 05:41:02;;;;;;;;;;;;;;;2.24;100.00;103447.63;4967764;28;19914;-76
2022/01/12 05:43:30;;;;;;;;;;;;;;;2.26;100.00;103440.66;4980763;28;20328;-75
2022/01/12 05:46:07;;;;;;;;;;;;;;;2.32;100.00;103446.66;4964850;28;19914;-74
2022/01/12 05:51:17;;;;;;;;;;;;;;;2.11;100.00;103451.22;5061371;28;19917;-75
2022/01/12 05:53:43;;;;;;;;;;;;;;;2.28;100.00;103457.13;5037478;28;19917;-74
2022/01/12 05:56:09;;;;;;;;;;;;;;;2.23;100.00;103453.72;5038267;28;19919;-74
2022/01/12 05:58:34;;;;;;;;;;;;;;;2.60;100.00;103463.78;5038619;28;20010;-75
2022/01/12 06:01:00;;;;;;;;;;;;;;;2.42;100.00;103470.03;5022459;28;19921;-77
2022/01/12 06:03:31;;;;;;;;;;;;;;;2.40;100.00;103474.41;5028951;28;19917;-77
2022/01/12 06:08:32;;;;;;;;;;;;;;;2.64;100.00;103480.28;5317073;22;19920;-78
2022/01/12 06:10:59;;;;;;;;;;;;;;;2.65;100.00;103480.25;5012742;28;19917;-77
2022/01/12 06:13:25;;;;;;;;;;;;;;;2.29;100.00;103478.84;5046537;28;19981;-77
2022/01/12 06:15:51;;;;;;;;;;;;;;;2.41;100.00;103483.13;5026334;28;19913;-78
2022/01/12 06:18:17;;;;;;;;;;;;;;;2.55;100.00;103485.59;5042529;28;19935;-76
2022/01/12 06:20:44;;;;;;;;;;;;;;;2.63;100.00;103486.34;5010133;28;19944;-78
2022/01/12 06:23:09;;;;;;;;;;;;;;;2.57;100.00;103495.13;5046968;28;19913;-78
2022/01/12 06:25:35;;;;;;;;;;;;;;;2.32;100.00;103489.28;5028181;28;19971;-80
2022/01/12 06:28:23;;;;;;;;;;;;;;;2.56;100.00;103489.91;5034688;28;19920;-79
2022/01/12 06:33:36;;;;;;;;;;;;;;;2.77;100.00;103492.31;5046328;28;19913;-77
2022/01/12 06:36:12;;;;;;;43.50;17.10;;;;;;;2.59;100.00;103455.97;5059058;28;19913;-80
2022/01/12 06:38:42;;;;;;;47.42;17.15;;;;;;;2.85;100.00;103513.09;5044405;28;20029;-78
2022/01/12 06:41:11;;;;;;;57.13;17.45;;;;;;;2.32;100.00;103467.53;5045967;28;20033;-79
2022/01/12 06:43:41;;;;;;;59.22;17.98;;;;;;;2.66;100.00;103473.31;5019251;28;20071;-77
2022/01/12 06:46:09;;;;;;;71.40;18.50;;;;;;;2.96;100.00;103524.28;5013853;28;20400;-78
2022/01/12 06:48:35;;;;;;;65.40;18.48;;;;;;;2.89;100.00;103492.16;5022223;28;20048;-78
2022/01/12 06:51:06;;;;;;;67.78;19.17;;;;;;;3.00;100.00;103502.47;5010193;28;20093;-78
2022/01/12 06:53:33;;;;;;;61.85;18.63;;;;;;;2.90;100.00;103459.94;5009380;28;20101;-77
2022/01/12 06:55:59;;;;;;;76.65;17.75;;;;;;;3.31;100.00;103530.81;5024103;28;20454;-78
2022/01/12 06:58:32;;;;;;;78.15;19.08;;;;;;;3.25;100.00;103536.13;5020646;28;20468;-77
2022/01/12 07:00:58;;;;;;;66.07;19.10;;;;;;;3.20;100.00;103497.00;5027163;28;20039;-80
2022/01/12 07:03:28;;;;;;;68.43;18.08;;;;;;;3.13;100.00;103519.75;5027977;28;20545;-78
2022/01/12 07:06:08;;;;;;;74.50;20.67;;;;;;;3.25;100.00;103537.00;5009768;28;20160;-78
2022/01/12 07:08:37;;;;;;;65.75;19.00;;;;;;;3.53;100.00;103547.94;5012596;28;20041;-78
2022/01/12 07:11:06;;;;;;;79.63;19.27;;;;;;;3.07;100.00;103509.34;5044305;28;20037;-78
2022/01/12 07:13:34;;;;;;;70.63;19.45;;;;;;;3.34;100.00;103554.31;5007811;28;20384;-75
2022/01/12 07:16:00;;;;;;;79.13;19.45;;;;;;;3.07;100.00;103514.56;5020517;28;20138;-75
2022/01/12 07:18:43;;;;;;;94.18;18.10;;;;;;;3.02;100.00;103570.31;5019087;28;20064;-81
2022/01/12 07:21:10;;;;;;;104.05;18.42;;;;;;;2.92;100.00;103517.34;5041860;28;20029;-77
2022/01/12 07:23:35;;;;;;;105.25;17.58;;;;;;;3.19;100.00;103539.66;5021468;28;20026;-78
2022/01/12 07:26:01;;;;;;;80.30;17.27;;;;;;;3.35;100.00;103566.47;5058417;28;20047;-78
2022/01/12 07:28:27;;;;;;;95.85;19.40;;;;;;;3.37;100.00;103564.69;5059594;28;20135;-77
2022/01/12 07:30:52;;;;;;;70.35;19.30;;;;;;;3.52;100.00;103563.63;5058131;28;20032;-78
2022/01/12 07:33:20;;;;;;;104.78;18.83;;;;;;;3.44;100.00;103558.50;5023671;28;20029;-78
2022/01/12 07:35:46;;;;;;;81.20;17.83;;;;;;;3.05;100.00;103539.84;5039714;28;20498;-78
2022/01/12 07:38:12;;;;;;;63.15;18.95;;;;;;;3.08;100.00;103523.25;5043644;28;20025;-79
2022/01/12 07:40:39;;;;;;;72.63;16.92;;;;;;;3.44;100.00;103568.09;5027472;28;20032;-79
2022/01/12 07:45:40;;;;;;;69.18;16.88;;;;;;;3.13;100.00;103537.13;5307587;23;20671;-79
2022/01/12 07:48:06;;;;;;;73.28;15.73;;;;;;;3.42;100.00;103555.06;5060993;28;19916;-79
2022/01/12 07:50:31;;;;;;;61.92;15.30;;;;;;;3.32;100.00;103567.38;5049092;28;20130;-78
2022/01/12 07:53:00;;;;;;;46.58;15.48;;;;;;;3.53;100.00;103581.06;5088790;28;20035;-79
2022/01/12 07:55:27;;;;;;;43.67;13.98;;;;;;;3.27;100.00;103592.69;5067803;28;20171;-79
2022/01/12 07:57:57;;;;;;;42.17;14.30;;;;;;;3.43;100.00;103559.41;5081846;28;20024;-81
2022/01/12 08:00:23;;;;;;;;;;;;;;;3.57;100.00;103590.59;5061718;28;19920;-77
2022/01/12 08:02:51;;;;;;;;;;;;;;;3.85;100.00;103592.81;5078539;28;19963;-78
2022/01/12 08:08:20;;;;;;;;;;;;;;;3.57;100.00;103595.81;5065887;28;19920;-76
2022/01/12 08:10:46;;;;;;;;;;;;;;;3.73;100.00;103596.47;5049676;28;19917;-78
2022/01/12 08:13:11;;;;;;;;;;;;;;;3.84;100.00;103591.06;5072658;28;19931;-78
2022/01/12 08:15:37;;;;;;;;;;;;;;;3.94;100.00;103606.63;5052136;28;19920;-78
2022/01/12 08:18:03;;;;;;;;;;;;;;;3.79;100.00;103587.66;5068084;28;19916;-78
2022/01/12 08:20:37;;;;;;;;;;;;;;;3.64;100.00;103602.69;5088057;28;19913;-77
2022/01/12 08:23:06;;;;;;;;;;;;;;;4.11;100.00;103605.50;5084591;28;19953;-78
2022/01/12 08:25:32;;;;;;;;;;;;;;;4.28;100.00;103615.75;5072005;28;19917;-77
2022/01/12 08:27:58;;;;;;;;;;;;;;;4.30;100.00;103616.59;5094843;28;19932;-77
2022/01/12 08:30:29;;;;;;;;;;;;;;;4.18;100.00;103615.03;5096106;28;19904;-77
2022/01/12 08:32:58;;;;;;;;;;;;;;;4.16;100.00;103619.41;5061921;28;19988;-76
2022/01/12 08:35:24;;;;;;;;;;;;;;;4.16;100.00;103620.25;5078639;28;19908;-76
2022/01/12 08:37:50;;;;;;;;;;;;;;;4.02;100.00;103629.19;5077529;28;19984;-77
2022/01/12 08:40:17;;;;;;;;;;;;;;;3.96;100.00;103632.75;5067348;28;19923;-80
2022/01/12 08:42:43;;;;;;;;;;;;;;;3.98;100.00;103636.22;5081149;28;19917;-76
2022/01/12 08:45:12;;;;;;;;;;;;;;;3.97;100.00;103645.81;5069595;28;19936;-77
2022/01/12 08:47:45;;;;;;;;;;;;;;;4.09;100.00;103642.16;5059441;28;19925;-76
2022/01/12 08:50:13;;;;;;;;;;;;;;;4.15;100.00;103635.97;5042875;28;19928;-77
2022/01/12 08:52:44;;;;;;;;;;;;;;;3.97;100.00;103634.47;5046703;28;19916;-77
2022/01/12 08:55:13;;;;;;;;;;;;;;;4.08;100.00;103648.25;5082936;28;20115;-79
2022/01/12 08:57:39;;;;;;;;;;;;;;;4.02;100.00;103648.38;5039914;28;19916;-80
2022/01/12 09:00:08;;;;;;;;;;;;;;;3.78;100.00;103646.94;5033061;28;19962;-78
2022/01/12 09:02:37;;;;;;;;;;;;;;;3.66;100.00;103654.94;5104419;22;19978;-78
2022/01/12 09:05:09;;;;;;;;;;;;;;;3.63;100.00;103660.19;5058514;28;19943;-77
2022/01/12 09:07:39;;;;;;;;;;;;;;;3.64;100.00;103664.53;5047560;28;19916;-77
2022/01/12 09:10:05;;;;;;;;;;;;;;;4.05;100.00;103669.25;5051471;28;19924;-77
2022/01/12 09:12:30;;;;;;;;;;;;;;;3.85;100.00;103674.72;5081029;28;19927;-79
2022/01/12 09:14:56;;;;;;;;;;;;;;;3.93;100.00;103669.41;5054352;28;20431;-78
2022/01/12 09:17:23;;;;;;;;;;;;;;;4.00;100.00;103663.22;5054410;28;20102;-79
2022/01/12 09:19:49;;;;;;;;;;;;;;;3.83;100.00;103673.88;5069837;28;20422;-77
2022/01/12 09:22:19;;;;;;;;;;;;;;;4.02;100.00;103665.78;5065131;28;19943;-78
2022/01/12 09:24:46;;;;;;;;;;;;;;;4.08;100.00;103668.31;5049945;28;19921;-78
2022/01/12 09:27:12;;;;;;;;;;;;;;;4.05;100.00;103673.59;5055534;28;19947;-78
2022/01/12 09:29:38;;;;;;;;;;;;;;;3.95;100.00;103678.06;5070268;28;19964;-78
2022/01/12 09:32:07;;;;;;;;;;;;;;;4.29;100.00;103677.63;5038592;28;19921;-77
2022/01/12 09:37:54;;;;;;;;;;;;;;;4.18;100.00;103683.88;5075802;28;20353;-77
2022/01/12 09:40:23;;;;;;;;;;;;;;;3.99;100.00;103695.47;5030791;28;19980;-77
2022/01/12 09:42:49;;;;;;;;;;;;;;;4.00;100.00;103701.53;5076387;28;19913;-77
2022/01/12 09:45:17;;;;;;;;;;;;;;;3.88;100.00;103694.72;5052974;28;19980;-78
2022/01/12 09:47:47;;;;;;;43.55;12.48;;;;;;;3.55;100.00;103657.66;5059708;28;20348;-78
2022/01/12 09:50:14;;;;;;;33.75;11.75;;;;;;;3.89;100.00;103712.16;5041884;28;20042;-78
2022/01/12 09:52:40;;;;;;;47.42;13.90;;;;;;;3.90;100.00;103713.88;5076733;28;20100;-77
2022/01/12 09:55:11;;;;;;;46.05;13.38;;;;;;;3.79;100.00;103700.94;5084080;28;20024;-79
2022/01/12 09:57:50;;;;;;;37.97;13.20;;;;;;;4.13;100.00;103697.88;5078338;28;20029;-79
2022/01/12 10:00:24;;;;;;;39.28;12.43;;;;;;;4.02;100.00;103694.56;5077426;28;20198;-79
2022/01/12 10:02:50;;;;;;;38.50;11.48;;;;;;;3.66;100.00;103675.84;5045803;28;20053;-79
2022/01/12 10:05:17;;;;;;;35.20;12.57;;;;;;;3.96;100.00;103671.97;5057222;28;20128;-78
2022/01/12 10:10:18;;;;;;;41.00;11.70;;;;;;;3.93;100.00;103729.53;5036533;28;20092;-76
2022/01/12 10:12:54;;;;;;;33.33;11.40;;;;;;;3.22;100.00;103604.91;5039019;28;20029;-76
2022/01/12 10:15:28;;;;;;;36.25;11.75;;;;;;;3.93;100.00;103719.09;5019688;28;20125;-75
2022/01/12 10:18:01;;;;;;;38.38;11.02;;;;;;;3.17;100.00;103632.81;5021176;28;20387;-74
2022/01/12 10:24:10;;;;;;;69.13;24.77;;;;;;;3.76;100.00;103683.53;5038889;28;20078;-75
2022/01/12 10:26:39;;;;;;;35.88;11.68;;;;;;;4.17;100.00;103721.38;5040233;28;20022;-74
2022/01/12 10:29:25;;;;;;;39.10;10.85;;;;;;;4.11;100.00;103712.72;5023769;28;20025;-75
2022/01/12 10:32:00;;;;;;;33.83;11.10;;;;;;;3.89;100.00;103681.66;5039924;28;20044;-76
2022/01/12 10:34:29;;;;;;;;;;;;;;;4.22;100.00;103725.69;5021251;28;20021;-76
2022/01/12 10:40:46;;;;;;;35.47;10.05;;;;;;;4.15;100.00;103737.97;5039820;28;20036;-75
2022/01/12 10:43:45;;;;;;;31.35;10.15;;;;;;;4.37;100.00;103741.19;5004629;28;20484;-75
2022/01/12 10:46:15;;;;;;;30.60;9.30;;;;;;;4.37;100.00;103731.56;4945420;28;20525;-75
2022/01/12 10:48:46;;;;;;;32.22;9.68;;;;;;;3.93;100.00;103631.06;4977533;28;20378;-75
2022/01/12 10:51:16;;;;;;;31.52;10.10;;;;;;;3.72;100.00;103618.25;4944453;28;20536;-75
2022/01/12 10:53:41;;;;;;;36.60;10.60;;;;;;;3.35;100.00;103542.97;4960878;28;20065;-76
2022/01/12 10:56:12;;;;;;;28.30;9.82;;;;;;;3.71;100.00;103634.84;4977258;28;20031;-73
2022/01/12 10:58:42;;;;;;;34.22;10.57;;;;;;;3.72;100.00;103639.16;4945252;28;20026;-75
2022/01/12 11:01:09;;;;;;;32.85;10.95;;;;;;;4.21;100.00;103716.97;4977607;28;20037;-76
2022/01/12 11:03:35;;;;;;;38.92;12.82;;;;;;;3.37;100.00;103550.78;4961313;28;20102;-75
2022/01/12 11:06:03;;;;;;;48.38;13.43;;;;;;;4.28;100.00;103692.47;4977062;28;20035;-76
2022/01/12 11:08:29;;;;;;;53.80;16.60;;;;;;;4.17;100.00;103619.38;4962259;28;20283;-75
2022/01/12 11:10:58;;;;;;;98.40;32.35;;;;;;;4.42;100.00;103715.81;4962772;28;20022;-76
2022/01/12 11:13:25;;;;;;;45.25;13.98;;;;;;;3.93;100.00;103594.44;4961720;28;20039;-75
2022/01/12 11:15:52;;;;;;;42.05;13.73;;;;;;;3.98;100.00;103560.41;4947526;28;20144;-78
2022/01/12 11:18:32;;;;;;;41.13;14.68;;;;;;;4.18;100.00;103583.63;4965237;28;20026;-78
2022/01/12 11:21:26;;;;;;;44.85;14.85;;;;;;;5.10;100.00;103680.69;4972844;28;20038;-79
2022/01/12 11:23:57;;;;;;;38.40;14.00;;;;;;;4.96;100.00;103629.41;4947951;29;20039;-78
2022/01/12 11:26:28;;;;;;;39.67;14.00;;;;;;;5.13;100.00;103620.38;4950087;29;20039;-78
2022/01/12 11:28:54;;;;;;;;;;;;;;;5.59;100.00;103666.69;4963394;29;20035;-78
2022/01/12 11:31:34;;;;;;;;;;;;;;;5.15;100.00;103580.16;4963271;29;19934;-78
2022/01/12 11:34:00;;;;;;;;;;;;;;;6.18;100.00;103653.22;4964452;29;19914;-76
2022/01/12 11:36:35;;;;;;;;;;;;;;;6.43;100.00;103662.25;4942801;29;19969;-76
2022/01/12 11:39:04;;;;;;;;;;;;;;;6.08;100.00;103663.03;4958924;29;19914;-76
2022/01/12 11:41:31;;;;;;;;;;;;;;;5.90;100.00;103676.53;4941982;29;20569;-76
2022/01/12 11:44:05;;;;;;;;;;;;;;;5.61;100.00;103676.25;4941646;29;20073;-75
2022/01/12 11:46:42;;;;;;;;;;;;;;;5.65;100.00;103669.16;4960467;29;20005;-75
2022/01/12 11:49:08;;;;;;;;;;;;;;;5.39;100.00;103677.56;4947714;29;19925;-77
2022/01/12 11:51:41;;;;;;;;;;;;;;;5.58;100.00;103676.28;4960866;29;20347;-76
2022/01/12 11:54:08;;;;;;;;;;;;;;;5.53;100.00;103670.28;4957827;29;19968;-76
2022/01/12 11:56:34;;;;;;;;;;;;;;;5.15;100.00;103673.63;4924760;29;19920;-76
2022/01/12 11:59:06;;;;;;;;;;;;;;;5.26;100.00;103669.03;4959585;29;19918;-76
2022/01/12 12:01:41;;;;;;;53.88;18.80;;;;;;;4.35;100.00;103597.28;5003792;28;20362;-77
2022/01/12 12:04:19;;;;;;;51.42;18.33;;;;;;;4.82;100.00;103587.78;5000755;28;20030;-78
2022/01/12 12:06:45;;;;;;;43.65;16.35;;;;;;;3.63;100.00;103465.06;5016980;28;20030;-77
2022/01/12 12:09:15;;;;;;;47.75;16.25;;;;;;;3.43;100.00;103461.88;5029020;28;20411;-77
2022/01/12 12:11:51;;;;;;;49.28;15.73;;;;;;;4.19;100.00;103515.59;5037538;28;20159;-77
2022/01/12 12:14:18;;;;;;;66.40;26.23;;;;;;;3.80;100.00;103443.91;5019083;28;20028;-76
2022/01/12 12:16:45;;;;;;;47.20;16.40;;;;;;;4.29;100.00;103510.19;5037535;28;20030;-77
2022/01/12 12:19:11;;;;;;;45.72;15.30;;;;;;;4.44;100.00;103550.94;5036741;28;20387;-76
2022/01/12 12:21:39;;;;;;;37.25;13.65;;;;;;;4.87;100.00;103641.81;5003253;28;20164;-77
2022/01/12 12:24:13;;;;;;;36.85;14.27;;;;;;;4.44;100.00;103632.91;4987177;28;20030;-76
2022/01/12 12:26:52;;;;;;;39.05;13.20;;;;;;;4.51;100.00;103633.69;5019786;28;20030;-76
2022/01/12 12:29:32;;;;;;;40.92;14.63;;;;;;;3.74;100.00;103569.44;5003722;28;20108;-78
2022/01/12 12:31:58;;;;;;;40.92;13.48;;;;;;;3.74;100.00;103541.53;5006544;28;20030;-78
2022/01/12 12:34:26;;;;;;;42.72;13.55;;;;;;;3.15;100.00;103449.19;5006619;28;20112;-77
2022/01/12 12:37:01;;;;;;;40.65;14.35;;;;;;;4.24;100.00;103671.59;5005291;28;20025;-77
2022/01/12 12:39:38;;;;;;;32.25;11.52;;;;;;;4.62;100.00;103659.69;5005960;28;20018;-75
2022/01/12 12:42:13;;;;;;;40.90;12.65;;;;;;;4.63;100.00;103683.19;5037898;28;20025;-77
2022/01/12 12:44:39;;;;;;;33.33;11.35;;;;;;;3.28;100.00;103461.22;5039985;28;20063;-75
2022/01/12 12:47:09;;;;;;;40.67;12.40;;;;;;;4.35;100.00;103686.25;5040024;28;20060;-75
2022/01/12 12:49:56;;;;;;;32.38;12.63;;;;;;;4.64;100.00;103689.31;5039698;28;20048;-76
2022/01/12 12:52:33;;;;;;;36.70;12.05;;;;;;;4.63;100.00;103684.97;5046960;28;20021;-76
2022/01/12 12:55:03;;;;;;;39.47;12.07;;;;;;;4.33;100.00;103612.16;5024376;28;20018;-77
2022/01/12 12:57:29;;;;;;;52.72;17.83;;;;;;;4.81;100.00;103682.94;5004011;28;20033;-75
2022/01/12 13:00:13;;;;;;;40.78;13.65;;;;;;;4.23;100.00;103583.56;5040131;28;20025;-75
2022/01/12 13:02:42;;;;;;;39.03;13.20;;;;;;;4.64;100.00;103682.34;4992431;28;20018;-75
2022/01/12 13:05:14;;;;;;;37.83;13.57;;;;;;;4.40;100.00;103678.31;5024832;28;20025;-77
2022/01/12 13:07:42;;;;;;;40.88;14.05;;;;;;;3.75;100.00;103534.59;5020594;28;20124;-78
2022/01/12 13:10:32;;;;;;;43.28;14.32;;;;;;;3.66;100.00;103590.47;5037964;28;20096;-77
2022/01/12 13:13:07;;;;;;;41.97;14.13;;;;;;;3.44;100.00;103555.91;5003764;28;20048;-76
2022/01/12 13:15:44;;;;;;;41.53;14.50;;;;;;;3.77;100.00;103621.69;5018101;28;20051;-75
2022/01/12 13:18:19;;;;;;;38.53;14.80;;;;;;;3.84;100.00;103596.31;5002352;28;20490;-76
2022/01/12 13:24:26;;;;;;;39.38;13.55;;;;;;;3.55;100.00;103527.88;4999941;28;20563;-75
2022/01/12 13:26:55;;;;;;;34.65;13.52;;;;;;;4.25;100.00;103691.66;5006372;28;20038;-77
2022/01/12 13:29:21;;;;;;;33.70;13.23;;;;;;;3.64;100.00;103579.16;4982872;28;20121;-76
2022/01/12 13:31:46;;;;;;;42.58;14.25;;;;;;;3.67;100.00;103591.31;4983133;28;20057;-74
2022/01/12 13:34:15;;;;;;;38.42;14.70;;;;;;;3.27;100.00;103555.22;4983739;28;20034;-75
2022/01/12 13:40:21;;;;;;;44.67;14.38;;;;;;;3.90;100.00;103635.44;5001035;28;20072;-76
2022/01/12 13:42:56;;;;;;;41.67;14.50;;;;;;;3.00;100.00;103575.56;4984335;28;20050;-77
2022/01/12 13:45:41;;;;;;;54.30;16.50;;;;;;;3.64;100.00;103609.66;4971675;28;20034;-75
2022/01/12 13:48:14;;;;;;;48.40;15.93;;;;;;;3.88;100.00;103666.81;4975665;28;20065;-75
2022/01/12 13:50:43;;;;;;;47.13;15.60;;;;;;;3.46;100.00;103606.38;4969805;28;20038;-76
2022/01/12 13:56:55;;;;;;;45.75;15.68;;;;;;;4.49;100.00;103651.16;5041817;28;20099;-78
2022/01/12 13:59:24;;;;;;;49.15;15.98;;;;;;;4.66;100.00;103675.31;5022747;28;20087;-73
2022/01/12 14:01:49;;;;;;;40.08;13.90;;;;;;;4.00;100.00;103644.03;5022371;28;20090;-75
2022/01/12 14:04:35;;;;;;;49.05;14.95;;;;;;;3.73;100.00;103680.13;5039054;28;20068;-76
2022/01/12 14:07:04;;;;;;;48.33;14.25;;;;;;;3.79;100.00;103651.25;5022742;28;20029;-76
2022/01/12 14:09:41;;;;;;;43.63;14.02;;;;;;;3.92;100.00;103688.59;5040408;28;20037;-75